createdAt,value
2017-11-13T00:08:26.592Z,22.40
2017-11-13T00:18:29.803Z,23.47
2017-11-13T00:28:33.039Z,23.80
2017-11-13T00:38:36.228Z,22.37
2017-11-13T00:48:40.306Z,33.53
2017-11-13T00:58:43.479Z,28.37
2017-11-13T01:08:46.681Z,27.83
2017-11-13T01:18:49.867Z,32.30
2017-11-13T01:28:53.058Z,30.10
2017-11-13T01:38:56.236Z,27.27
2017-11-13T01:48:59.410Z,22.77
2017-11-13T01:59:03.335Z,23.27
2017-11-13T02:09:06.586Z,30.33
2017-11-13T02:19:10.542Z,31.35
2017-11-13T02:29:13.701Z,23.52
2017-11-13T02:39:16.909Z,22.57
2017-11-13T02:49:20.100Z,24.43
2017-11-13T02:59:23.343Z,23.27
2017-11-13T03:09:26.499Z,23.40
2017-11-13T03:19:29.658Z,27.10
2017-11-13T03:29:32.812Z,21.52
2017-11-13T03:39:36.737Z,24.93
2017-11-13T03:49:39.912Z,24.93
2017-11-13T03:59:43.851Z,25.07
2017-11-13T04:09:47.023Z,26.73
2017-11-13T04:19:50.178Z,22.50
2017-11-13T04:29:53.352Z,21.40
2017-11-13T04:39:56.514Z,27.20
2017-11-13T04:50:00.463Z,23.98
2017-11-13T05:00:04.358Z,24.27
2017-11-13T05:10:07.542Z,27.43
2017-11-13T05:20:10.736Z,26.35
2017-11-13T05:30:13.895Z,25.40
2017-11-13T05:40:17.156Z,25.60
2017-11-13T05:50:20.314Z,22.10
2017-11-13T06:00:24.282Z,26.17
2017-11-13T06:10:27.459Z,32.07
2017-11-13T06:20:30.627Z,27.23
2017-11-13T06:30:34.544Z,27.33
2017-11-13T06:40:37.750Z,24.77
2017-11-13T06:50:40.905Z,27.10
2017-11-13T07:00:44.060Z,33.05
2017-11-13T07:10:47.259Z,32.40
2017-11-13T07:20:50.427Z,34.35
2017-11-13T07:30:53.712Z,34.57
2017-11-13T07:40:57.636Z,22.87
2017-11-13T07:51:01.666Z,28.67
2017-11-13T08:01:04.841Z,28.03
2017-11-13T08:11:08.093Z,20.30
2017-11-13T08:21:11.254Z,21.15
2017-11-13T08:31:14.397Z,15.55
2017-11-13T08:41:17.583Z,15.68
2017-11-13T08:51:20.751Z,16.00
2017-11-13T09:01:24.691Z,20.73
2017-11-13T09:11:27.872Z,20.77
2017-11-13T09:21:31.024Z,15.47
2017-11-13T09:31:34.198Z,18.80
2017-11-13T09:41:37.370Z,28.83
2017-11-13T09:51:41.273Z,15.73
2017-11-13T10:01:44.405Z,13.90
2017-11-13T10:11:47.573Z,25.47
2017-11-13T10:21:51.479Z,11.83
2017-11-13T10:31:54.667Z,18.27
2017-11-13T10:41:58.611Z,13.93
2017-11-13T10:52:02.583Z,15.13
2017-11-13T11:02:06.525Z,18.35
2017-11-13T11:12:11.208Z,16.62
2017-11-13T11:22:16.707Z,20.60
2017-11-13T11:32:25.581Z,14.83
2017-11-13T11:42:28.751Z,10.20
2017-11-13T11:52:31.942Z,24.70
2017-11-13T12:02:35.902Z,11.50
2017-11-13T12:12:39.155Z,17.00
2017-11-13T12:22:42.348Z,14.07
2017-11-13T12:32:45.550Z,10.50
2017-11-13T12:42:49.487Z,12.07
2017-11-13T12:52:52.662Z,11.30
2017-11-13T13:02:55.854Z,11.85
2017-11-13T13:12:59.059Z,9.83
2017-11-13T13:23:03.056Z,12.00
2017-11-13T13:33:06.275Z,11.83
2017-11-13T13:43:09.466Z,16.67
2017-11-13T13:53:12.659Z,12.67
2017-11-13T14:03:15.849Z,9.18
2017-11-13T14:13:18.996Z,10.00
2017-11-13T14:23:22.981Z,12.57
2017-11-13T14:33:26.936Z,11.47
2017-11-13T14:43:30.202Z,11.23
2017-11-13T14:53:33.381Z,8.73
2017-11-13T15:03:37.334Z,10.07
2017-11-13T15:13:41.279Z,9.30
2017-11-13T15:23:44.496Z,13.13
2017-11-13T15:33:47.787Z,7.67
2017-11-13T15:43:51.754Z,13.97
2017-11-13T15:53:54.912Z,11.87
2017-11-13T16:03:58.201Z,16.33
2017-11-13T16:14:02.140Z,15.67
2017-11-13T16:24:05.335Z,13.23
2017-11-13T16:34:08.544Z,13.25
2017-11-13T16:44:12.535Z,14.13
2017-11-13T16:54:15.755Z,19.20
2017-11-13T17:04:18.938Z,17.63
2017-11-13T17:14:22.133Z,12.27
2017-11-13T17:24:25.365Z,15.30
2017-11-13T17:34:28.530Z,14.73
2017-11-13T17:44:31.741Z,25.33
2017-11-13T17:54:34.895Z,10.43
2017-11-13T18:04:38.088Z,10.20
2017-11-13T18:14:41.285Z,25.13
2017-11-13T18:24:44.452Z,21.17
2017-11-13T18:34:47.675Z,16.20
2017-11-13T18:44:50.860Z,20.30
2017-11-13T18:54:54.022Z,22.50
2017-11-13T19:04:57.202Z,25.67
2017-11-13T19:15:00.403Z,21.40
2017-11-13T19:25:04.642Z,17.20
2017-11-13T19:35:07.849Z,16.50
2017-11-13T19:45:11.863Z,21.67
2017-11-13T19:55:15.055Z,34.37
2017-11-13T20:05:18.298Z,29.83
2017-11-13T20:15:21.564Z,33.20
2017-11-13T20:25:24.878Z,37.30
2017-11-13T20:35:28.081Z,25.33
2017-11-13T20:45:31.334Z,35.73
2017-11-13T20:55:34.676Z,24.65
2017-11-13T21:05:37.890Z,23.37
2017-11-13T21:15:41.872Z,39.70
2017-11-13T21:25:45.080Z,28.97
2017-11-13T21:35:49.053Z,31.33
2017-11-13T21:45:52.276Z,27.70
2017-11-13T21:55:56.313Z,63.77
2017-11-13T22:05:59.487Z,24.90
2017-11-13T22:16:02.715Z,29.33
2017-11-13T22:26:05.910Z,31.13
2017-11-13T22:36:09.138Z,34.73
2017-11-13T22:46:12.315Z,27.03
2017-11-13T22:56:16.379Z,28.77
2017-11-13T23:06:19.570Z,30.57
2017-11-13T23:16:22.752Z,32.00
2017-11-13T23:26:26.698Z,40.87
2017-11-13T23:36:30.652Z,28.10
2017-11-13T23:46:34.602Z,23.70
2017-11-13T23:56:38.571Z,51.50
